Aérodrome :
LOGIN :

S'inscrire | Disclaimer

   EN    FR    IT 

 










Légende :    VFR   VFR Marginal   IFR   IFR Intensif   IFR Très Intensif
Visi : 
Plafond : 
>= 8 km
>= 3000ft
5 à 8 km
1000 à 3000 ft
1500m à 5 km
500 à 1000 ft
800 à 1500m
200 à 500 ft
< 800m
< 200 ft
Symboles :   Orages  Brouillard  Fortes neiges  Fortes précipitations  Vent > 20 kt
SIGMETs :   Divers  Orages  Givrage  Turbulence  Onde Orograph.  Cendres Volcan.






- Altitude de l'aérodrome : 53 ft
- Code IATA : LBC


EDHL - Lübeck

DERNIER METAR :
  • 071020Z 19013KT 160V220 9999 SCT044 17/07 Q1005

METARs EXPIRÉS :
  • 070950Z 18011KT 130V220 9999 FEW045 17/06 Q1004
  • 070920Z 17011KT 140V200 9999 FEW040 16/07 Q1004
  • 070850Z 18010KT 140V230 9999 FEW044 16/06 Q1004
  • 070820Z 18011KT 130V210 9999 FEW044 16/05 Q1004
  • 070750Z VRB08KT 9999 FEW040 16/06 Q1004
  • 070720Z 17006KT 110V220 CAVOK 15/08 Q1004

TAF TAF EDHL
Valide du 07 à 09h jusqu'au 07 à 18h UTC


070800Z 0709/0718 16004KT 9999 SCT040
BECMG 0709/0711 20010KT
FM071100 21010G20KT 9999 FEW040CB
TEMPO 0711/0717 21015G30KT SHRA
PROB30
TEMPO 0714/0716 TSRA



MET'MAP, la Météo Aéronautique d'un coup d'oeil ! - Copyright ORBIFLY Décembre 2007 - Disclaimer

ORBIFLY MET'MAP TEAM :

Programmation & Développement : Alexandra Zaïnal
Sur une idée originale de : Baudouin d'Aumeries
Assistance à la programmation : Marc-Olivier Méhu
Soutien technique & logistique : Manuel Goepfert

Contact : metmap@orbifly.com




SOURCES & CREDITS :

   NOAA